Observation data for Muleshoe on 01/10/2018      Previous  Date  Next       Current Mesonet Observations  Soil Data  Daily Summary Page  Observations in Plain Language
KMUS 100600Z 20008KT 06/M02 A2985 RMK A01 T00631015  RH  058%=      5-min Rain = 0
KMUS 100605Z 21007KT 06/M02 A2985 RMK A01 T00601016  RH  058%=      5-min Rain = 0
KMUS 100610Z 23006KT 06/M02 A2985 RMK A01 T00591015  RH  060%=      5-min Rain = 0
KMUS 100615Z 22005KT 06/M01 A2984 RMK A01 T00591014  RH  060%=      5-min Rain = 0
KMUS 100620Z 25004KT 06/M02 A2984 RMK A01 T00581015  RH  060%=      5-min Rain = 0
KMUS 100625Z 23004KT 06/M02 A2983 RMK A01 T00551018  RH  060%=      5-min Rain = 0
KMUS 100630Z 19006KT 05/M02 A2983 RMK A01 T00521017  RH  061%=      5-min Rain = 0
KMUS 100635Z 19005KT 05/M02 A2983 RMK A01 T00541016  RH  061%=      5-min Rain = 0
KMUS 100640Z 19004KT 05/M02 A2982 RMK A01 T00541017  RH  061%=      5-min Rain = 0
KMUS 100645Z 18005KT 06/M02 A2982 RMK A01 T00551015  RH  061%=      5-min Rain = 0
KMUS 100650Z 19005KT 05/M01 A2982 RMK A01 T00541012  RH  063%=      5-min Rain = 0
KMUS 100655Z 18005KT 06/M01 A2982 RMK A01 T00581006  RH  064%=      5-min Rain = 0
KMUS 100700Z 19006KT 06/M00 A2982 RMK A01 T00631004  RH  063%=      5-min Rain = 0
KMUS 100705Z 20008KT 07/M00 A2982 RMK A01 T00721003  RH  060%=      5-min Rain = 0
KMUS 100710Z 21009KT 09/M00 A2982 RMK A01 T00901002  RH  053%=      5-min Rain = 0
KMUS 100715Z 22007KT 10/M00 A2982 RMK A01 T00961002  RH  051%=      5-min Rain = 0
KMUS 100720Z 22007KT 10/M00 A2982 RMK A01 T00961003  RH  051%=      5-min Rain = 0
KMUS 100725Z 24008KT 10/M00 A2983 RMK A01 T00961003  RH  051%=      5-min Rain = 0
KMUS 100730Z 28007KT 09/M01 A2982 RMK A01 T00931006  RH  050%=      5-min Rain = 0
KMUS 100735Z 28007KT 08/M01 A2982 RMK A01 T00821010  RH  053%=      5-min Rain = 0
KMUS 100740Z 27008KT 08/M01 A2981 RMK A01 T00801010  RH  053%=      5-min Rain = 0
KMUS 100745Z 28006KT 08/M01 A2981 RMK A01 T00821010  RH  053%=      5-min Rain = 0
KMUS 100750Z 27006KT 08/M01 A2981 RMK A01 T00791012  RH  053%=      5-min Rain = 0
KMUS 100755Z 27006KT 08/M01 A2981 RMK A01 T00771012  RH  054%=      5-min Rain = 0
KMUS 100800Z 25006KT 08/M01 A2981 RMK A01 T00751012  RH  055%=      5-min Rain = 0
KMUS 100805Z 25006KT 08/M01 A2981 RMK A01 T00751011  RH  055%=      5-min Rain = 0
KMUS 100810Z 26005KT 07/M01 A2981 RMK A01 T00741011  RH  055%=      5-min Rain = 0
KMUS 100815Z 27006KT 07/M01 A2981 RMK A01 T00731011  RH  056%=      5-min Rain = 0
KMUS 100820Z 26006KT 07/M01 A2981 RMK A01 T00711011  RH  056%=      5-min Rain = 0
KMUS 100825Z 25005KT 07/M01 A2981 RMK A01 T00721009  RH  057%=      5-min Rain = 0
KMUS 100830Z 24005KT 08/M01 A2981 RMK A01 T00761007  RH  057%=      5-min Rain = 0
KMUS 100835Z 23005KT 08/M01 A298 RMK A01 T00781007  RH  056%=      5-min Rain = 0
KMUS 100840Z 25004KT 08/M01 A298 RMK A01 T00801006  RH  055%=      5-min Rain = 0
KMUS 100845Z 24006KT 08/M01 A298 RMK A01 T00821006  RH  054%=      5-min Rain = 0
KMUS 100850Z 24007KT 09/M01 A298 RMK A01 T00861005  RH  053%=      5-min Rain = 0
KMUS 100855Z 24007KT 09/M01 A298 RMK A01 T00901005  RH  052%=      5-min Rain = 0
KMUS 100900Z 24007KT 09/M01 A298 RMK A01 T00921005  RH  051%=      5-min Rain = 0
KMUS 100905Z 25007KT 09/M00 A298 RMK A01 T00931004  RH  051%=      5-min Rain = 0
KMUS 100910Z 25008KT 09/M00 A2979 RMK A01 T00931004  RH  051%=      5-min Rain = 0
KMUS 100915Z 24007KT 09/M01 A2979 RMK A01 T00941005  RH  051%=      5-min Rain = 0
KMUS 100920Z 24007KT 09/M01 A2979 RMK A01 T00931005  RH  051%=      5-min Rain = 0
KMUS 100925Z 25007KT 09/M01 A2979 RMK A01 T00911006  RH  051%=      5-min Rain = 0
KMUS 100930Z 25007KT 09/M01 A2979 RMK A01 T00911006  RH  051%=      5-min Rain = 0
KMUS 100935Z 25006KT 09/M01 A2979 RMK A01 T00901006  RH  052%=      5-min Rain = 0
KMUS 100940Z 24006KT 09/M01 A2979 RMK A01 T00901006  RH  052%=      5-min Rain = 0
KMUS 100945Z 25007KT 09/M01 A2978 RMK A01 T00901006  RH  052%=      5-min Rain = 0
KMUS 100950Z 24007KT 09/M01 A2979 RMK A01 T00901006  RH  051%=      5-min Rain = 0
KMUS 100955Z 24007KT 09/M01 A2978 RMK A01 T00891007  RH  052%=      5-min Rain = 0
KMUS 101000Z 25007KT 09/M01 A2978 RMK A01 T00891007  RH  052%=      5-min Rain = 0
KMUS 101005Z 26007KT 09/M01 A2978 RMK A01 T00881007  RH  052%=      5-min Rain = 0
KMUS 101010Z 25007KT 09/M01 A2978 RMK A01 T00871008  RH  052%=      5-min Rain = 0
KMUS 101015Z 26006KT 09/M01 A2977 RMK A01 T00851008  RH  053%=      5-min Rain = 0
KMUS 101020Z 25006KT 08/M01 A2977 RMK A01 T00841008  RH  053%=      5-min Rain = 0
KMUS 101025Z 24006KT 08/M01 A2978 RMK A01 T00821008  RH  054%=      5-min Rain = 0
KMUS 101030Z 23006KT 08/M01 A2978 RMK A01 T00801009  RH  054%=      5-min Rain = 0
KMUS 101035Z 23006KT 08/M01 A2978 RMK A01 T00791009  RH  054%=      5-min Rain = 0
KMUS 101040Z 24005KT 08/M01 A2977 RMK A01 T00781009  RH  054%=      5-min Rain = 0
KMUS 101045Z 22006KT 08/M01 A2978 RMK A01 T00761010  RH  055%=      5-min Rain = 0
KMUS 101050Z 22006KT 07/M01 A2977 RMK A01 T00731011  RH  056%=      5-min Rain = 0
KMUS 101055Z 23005KT 07/M01 A2977 RMK A01 T00711011  RH  056%=      5-min Rain = 0
KMUS 101100Z 23005KT 07/M01 A2977 RMK A01 T00691012  RH  057%=      5-min Rain = 0
KMUS 101105Z 25004KT 07/M01 A2977 RMK A01 T00691011  RH  057%=      5-min Rain = 0
KMUS 101110Z 26005KT 07/M01 A2977 RMK A01 T00691011  RH  057%=      5-min Rain = 0
KMUS 101115Z 24004KT 07/M01 A2976 RMK A01 T00681012  RH  057%=      5-min Rain = 0
KMUS 101120Z 24005KT 07/M01 A2976 RMK A01 T00671011  RH  058%=      5-min Rain = 0
KMUS 101125Z 24005KT 07/M01 A2976 RMK A01 T00671011  RH  058%=      5-min Rain = 0
KMUS 101130Z 24004KT 07/M01 A2976 RMK A01 T00671011  RH  058%=      5-min Rain = 0
KMUS 101135Z 22002KT 07/M01 A2976 RMK A01 T00671011  RH  058%=      5-min Rain = 0
KMUS 101140Z 28002KT 07/M01 A2976 RMK A01 T00661012  RH  058%=      5-min Rain = 0
KMUS 101145Z 29003KT 07/M01 A2976 RMK A01 T00651012  RH  058%=      5-min Rain = 0
KMUS 101150Z 27002KT 07/M01 A2975 RMK A01 T00661011  RH  058%=      5-min Rain = 0
KMUS 101155Z 29002KT 07/M01 A2975 RMK A01 T00691012  RH  057%=      5-min Rain = 0
KMUS 101200Z 30003KT 07/M01 A2975 RMK A01 T00671012  RH  058%=      5-min Rain = 0
KMUS 101205Z 26004KT 07/M01 A2975 RMK A01 T00681011  RH  058%=      5-min Rain = 0
KMUS 101210Z 24005KT 07/M01 A2974 RMK A01 T00741012  RH  055%=      5-min Rain = 0
KMUS 101215Z 24005KT 08/M01 A2974 RMK A01 T00841012  RH  051%=      5-min Rain = 0
KMUS 101220Z 23004KT 09/M01 A2974 RMK A01 T00891012  RH  049%=      5-min Rain = 0
KMUS 101225Z 21006KT 09/M01 A2973 RMK A01 T00891012  RH  050%=      5-min Rain = 0
KMUS 101230Z 21008KT 10/M01 A2973 RMK A01 T00951010  RH  048%=      5-min Rain = 0
KMUS 101235Z 20008KT 10/M01 A2973 RMK A01 T00971010  RH  048%=      5-min Rain = 0
KMUS 101240Z 21008KT 10/M01 A2972 RMK A01 T00951010  RH  048%=      5-min Rain = 0
KMUS 101245Z 22008KT 09/M01 A2973 RMK A01 T00941010  RH  049%=      5-min Rain = 0
KMUS 101250Z 24006KT 09/M01 A2973 RMK A01 T00911011  RH  049%=      5-min Rain = 0
KMUS 101255Z 23005KT 09/M01 A2973 RMK A01 T00861012  RH  051%=      5-min Rain = 0
KMUS 101300Z 22006KT 08/M01 A2973 RMK A01 T00811013  RH  052%=      5-min Rain = 0
KMUS 101305Z 21007KT 08/M01 A2973 RMK A01 T00771013  RH  054%=      5-min Rain = 0
KMUS 101310Z 20009KT 08/M01 A2973 RMK A01 T00761010  RH  055%=      5-min Rain = 0
KMUS 101315Z 22009KT 08/M01 A2973 RMK A01 T00811009  RH  054%=      5-min Rain = 0
KMUS 101320Z 26005KT 08/M02 A2973 RMK A01 T00801015  RH  052%=      5-min Rain = 0
KMUS 101325Z 24004KT 07/M02 A2972 RMK A01 T00651019  RH  055%=      5-min Rain = 0
KMUS 101330Z 20007KT 07/M01 A2972 RMK A01 T00661012  RH  058%=      5-min Rain = 0
KMUS 101335Z 20009KT 08/M01 A2972 RMK A01 T00821008  RH  054%=      5-min Rain = 0
KMUS 101340Z 22008KT 08/M01 A2973 RMK A01 T00821009  RH  053%=      5-min Rain = 0
KMUS 101345Z 24006KT 08/M01 A2973 RMK A01 T00791012  RH  053%=      5-min Rain = 0
KMUS 101350Z 25006KT 07/M02 A2973 RMK A01 T00661016  RH  056%=      5-min Rain = 0
KMUS 101355Z 23006KT 07/M01 A2973 RMK A01 T00651013  RH  058%=      5-min Rain = 0
KMUS 101400Z 21008KT 07/M01 A2972 RMK A01 T00741008  RH  057%=      5-min Rain = 0
KMUS 101405Z 21010KT 09/M01 A2972 RMK A01 T00861008  RH  052%=      5-min Rain = 0
KMUS 101410Z 22009KT 09/M01 A2972 RMK A01 T00901009  RH  050%=      5-min Rain = 0
KMUS 101415Z 22009KT 09/M01 A2972 RMK A01 T00901009  RH  050%=      5-min Rain = 0
KMUS 101420Z 21009KT 09/M01 A2972 RMK A01 T00931009  RH  049%=      5-min Rain = 0
KMUS 101425Z 21008KT 09/M01 A2972 RMK A01 T00931009  RH  049%=      5-min Rain = 0
KMUS 101430Z 22008KT 09/M01 A2972 RMK A01 T00911010  RH  050%=      5-min Rain = 0
KMUS 101435Z 22008KT 09/M01 A2972 RMK A01 T00931010  RH  049%=      5-min Rain = 0
KMUS 101440Z 22008KT 09/M01 A2972 RMK A01 T00941010  RH  049%=      5-min Rain = 0
KMUS 101445Z 22009KT 10/M01 A2972 RMK A01 T00951009  RH  049%=      5-min Rain = 0
KMUS 101450Z 21010KT 10/M01 A2972 RMK A01 T00991010  RH  047%=      5-min Rain = 0
KMUS 101455Z 21010KT 10/M01 A2971 RMK A01 T01031010  RH  046%=      5-min Rain = 0
KMUS 101500Z 20010KT 11/M01 A2972 RMK A01 T01071009  RH  045%=      5-min Rain = 0
KMUS 101505Z 20010KT 11/M01 A2971 RMK A01 T01111009  RH  044%=      5-min Rain = 0
KMUS 101510Z 20011KT 12/M01 A2971 RMK A01 T01181009  RH  042%=      5-min Rain = 0
KMUS 101515Z 20010KT 13/M01 A2971 RMK A01 T01271008  RH  039%=      5-min Rain = 0
KMUS 101520Z 21011G17KT 13/M01 A2971 RMK A01 T01331010  RH  038%=      5-min Rain = 0
KMUS 101525Z 22012KT 14/M01 A2971 RMK A01 T01391012  RH  036%=      5-min Rain = 0
KMUS 101530Z 22012G17KT 14/M01 A2971 RMK A01 T01441013  RH  034%=      5-min Rain = 0
KMUS 101535Z 22012G18KT 15/M01 A2971 RMK A01 T01461013  RH  034%=      5-min Rain = 0
KMUS 101540Z 22013KT 15/M01 A2971 RMK A01 T01531012  RH  032%=      5-min Rain = 0
KMUS 101545Z 22013G19KT 16/M01 A2971 RMK A01 T01631012  RH  031%=      5-min Rain = 0
KMUS 101550Z 22014G19KT 17/M01 A2971 RMK A01 T01691012  RH  029%=      5-min Rain = 0
KMUS 101555Z 22014KT 17/M01 A2971 RMK A01 T01721011  RH  029%=      5-min Rain = 0
KMUS 101600Z 22016G23KT 18/M01 A2971 RMK A01 T01811013  RH  027%=      5-min Rain = 0
KMUS 101605Z 23017G22KT 19/M01 A2971 RMK A01 T01861013  RH  026%=      5-min Rain = 0
KMUS 101610Z 22016G22KT 19/M01 A2971 RMK A01 T01881013  RH  026%=      5-min Rain = 0
KMUS 101615Z 22016G22KT 19/M01 A2971 RMK A01 T01871013  RH  026%=      5-min Rain = 0
KMUS 101620Z 22016G22KT 19/M01 A2971 RMK A01 T01881013  RH  026%=      5-min Rain = 0
KMUS 101625Z 23014G19KT 19/M01 A2971 RMK A01 T01911013  RH  025%=      5-min Rain = 0
KMUS 101630Z 23012G17KT 19/M01 A2971 RMK A01 T01921012  RH  025%=      5-min Rain = 0
KMUS 101635Z 23015G22KT 19/M01 A2971 RMK A01 T01921012  RH  025%=      5-min Rain = 0
KMUS 101640Z 24018G23KT 19/M01 A2971 RMK A01 T01921014  RH  025%=      5-min Rain = 0
KMUS 101645Z 25019G24KT 19/M01 A2971 RMK A01 T01891014  RH  026%=      5-min Rain = 0
KMUS 101650Z 25017G22KT 19/M01 A2971 RMK A01 T01871014  RH  026%=      5-min Rain = 0
KMUS 101655Z 26016G22KT 19/M01 A2971 RMK A01 T01861013  RH  026%=      5-min Rain = 0
KMUS 101700Z 26014G22KT 19/M01 A2971 RMK A01 T01861011  RH  026%=      5-min Rain = 0
KMUS 101705Z 25013G18KT 19/M01 A2971 RMK A01 T01851011  RH  027%=      5-min Rain = 0
KMUS 101710Z 26010G15KT 19/M01 A2971 RMK A01 T01881010  RH  027%=      5-min Rain = 0
KMUS 101715Z 26012KT 19/M01 A2971 RMK A01 T01851010  RH  027%=      5-min Rain = 0
KMUS 101720Z 26013G20KT 19/M01 A2971 RMK A01 T01881011  RH  026%=      5-min Rain = 0
KMUS 101725Z 26015KT 19/M01 A297 RMK A01 T01911011  RH  026%=      5-min Rain = 0
KMUS 101730Z 27014G20KT 19/M01 A297 RMK A01 T01931010  RH  026%=      5-min Rain = 0
KMUS 101735Z 25016G23KT 19/M01 A297 RMK A01 T01911011  RH  026%=      5-min Rain = 0
KMUS 101740Z 25015KT 19/M01 A2969 RMK A01 T01871011  RH  026%=      5-min Rain = 0
KMUS 101745Z 25016G21KT 19/M01 A2969 RMK A01 T01871011  RH  026%=      5-min Rain = 0
KMUS 101750Z 26015KT 19/M01 A2969 RMK A01 T01871010  RH  027%=      5-min Rain = 0
KMUS 101755Z 24014KT 19/M01 A2968 RMK A01 T01891010  RH  026%=      5-min Rain = 0
KMUS 101800Z 25012KT 19/M01 A2967 RMK A01 T01921009  RH  026%=      5-min Rain = 0
KMUS 101805Z 24011KT 19/M01 A2967 RMK A01 T01941008  RH  026%=      5-min Rain = 0
KMUS 101810Z 27010KT 20/M01 A2966 RMK A01 T01951008  RH  026%=      5-min Rain = 0
KMUS 101815Z 26010G16KT 19/M01 A2966 RMK A01 T01931008  RH  026%=      5-min Rain = 0
KMUS 101820Z 26009G14KT 19/M01 A2965 RMK A01 T01941008  RH  026%=      5-min Rain = 0
KMUS 101825Z 27009KT 20/M01 A2965 RMK A01 T02001007  RH  025%=      5-min Rain = 0
KMUS 101830Z 26017G22KT 21/M01 A2964 RMK A01 T02051009  RH  024%=      5-min Rain = 0
KMUS 101835Z 24017G23KT 21/M01 A2964 RMK A01 T02051010  RH  024%=      5-min Rain = 0
KMUS 101840Z 24016G24KT 20/M01 A2963 RMK A01 T02031010  RH  024%=      5-min Rain = 0
KMUS 101845Z 24016G21KT 21/M01 A2963 RMK A01 T02061010  RH  024%=      5-min Rain = 0
KMUS 101850Z 24017G22KT 21/M01 A2962 RMK A01 T02051011  RH  024%=      5-min Rain = 0
KMUS 101855Z 25018G24KT 21/M01 A2962 RMK A01 T02071012  RH  023%=      5-min Rain = 0
KMUS 101900Z 25021G28KT 21/M01 A2961 RMK A01 T02071013  RH  023%=      5-min Rain = 0
KMUS 101905Z 25022G30KT 21/M02 A2961 RMK A01 T02091017  RH  022%=      5-min Rain = 0
KMUS 101910Z 24021G30KT 21/M02 A2961 RMK A01 T02051016  RH  023%=      5-min Rain = 0
KMUS 101915Z 23020G29KT 21/M02 A296 RMK A01 T02091016  RH  022%=      5-min Rain = 0
KMUS 101920Z 24023G32KT 21/M02 A2959 RMK A01 T02091017  RH  022%=      5-min Rain = 0
KMUS 101925Z 24024G33KT 21/M02 A2959 RMK A01 T02071019  RH  022%=      5-min Rain = 0
KMUS 101930Z 25022G30KT 21/M02 A2958 RMK A01 T02071022  RH  021%=      5-min Rain = 0
KMUS 101935Z 25022G31KT 21/M02 A2958 RMK A01 T02111020  RH  021%=      5-min Rain = 0
KMUS 101940Z 24022G31KT 21/M02 A2957 RMK A01 T02091018  RH  022%=      5-min Rain = 0
KMUS 101945Z 24023G31KT 21/M02 A2957 RMK A01 T02091019  RH  022%=      5-min Rain = 0
KMUS 101950Z 23024G32KT 21/M02 A2957 RMK A01 T02111020  RH  021%=      5-min Rain = 0
KMUS 101955Z 23021G32KT 21/M03 A2957 RMK A01 T02061025  RH  021%=      5-min Rain = 0
KMUS 102000Z 24022G28KT 20/M02 A2957 RMK A01 T01981020  RH  023%=      5-min Rain = 0
KMUS 102005Z 24019KT 20/M02 A2956 RMK A01 T01951021  RH  023%=      5-min Rain = 0
KMUS 102010Z 24016G22KT 20/M02 A2956 RMK A01 T01951020  RH  024%=      5-min Rain = 0
KMUS 102015Z 23018G24KT 20/M02 A2956 RMK A01 T01951022  RH  023%=      5-min Rain = 0
KMUS 102020Z 24016G21KT 20/M02 A2955 RMK A01 T01951019  RH  024%=      5-min Rain = 0
KMUS 102025Z 25015G20KT 19/M02 A2955 RMK A01 T01931016  RH  025%=      5-min Rain = 0
KMUS 102030Z 24016G21KT 19/M01 A2955 RMK A01 T01921012  RH  025%=      5-min Rain = 0
KMUS 102035Z 25017G22KT 19/M01 A2955 RMK A01 T01891010  RH  026%=      5-min Rain = 0
KMUS 102040Z 23014G19KT 19/M01 A2955 RMK A01 T01851008  RH  027%=      5-min Rain = 0
KMUS 102045Z 25021G30KT 19/M01 A2955 RMK A01 T01861007  RH  027%=      5-min Rain = 0
KMUS 102050Z 27024G32KT 18/01 A2955 RMK A01 T01790005  RH  031%=      5-min Rain = 0
KMUS 102055Z 27021G30KT 18/01 A2955 RMK A01 T01800007  RH  032%=      5-min Rain = 0
KMUS 102100Z 27024G33KT 18/01 A2955 RMK A01 T01830006  RH  031%=      5-min Rain = 0
KMUS 102105Z 27024G33KT 18/01 A2956 RMK A01 T01770006  RH  032%=      5-min Rain = 0
KMUS 102110Z 26021G30KT 17/01 A2956 RMK A01 T01730007  RH  033%=      5-min Rain = 0
KMUS 102115Z 26022G31KT 17/01 A2956 RMK A01 T01720007  RH  033%=      5-min Rain = 0
KMUS 102120Z 26024G33KT 17/01 A2957 RMK A01 T01720005  RH  033%=      5-min Rain = 0
KMUS 102125Z 26023G29KT 17/00 A2958 RMK A01 T01670001  RH  033%=      5-min Rain = 0
KMUS 102130Z 26020G26KT 16/00 A2958 RMK A01 T01610000  RH  034%=      5-min Rain = 0
KMUS 102135Z 25023G31KT 16/00 A2958 RMK A01 T01580000  RH  034%=      5-min Rain = 0
KMUS 102140Z 25023G31KT 16/00 A2958 RMK A01 T01560000  RH  035%=      5-min Rain = 0
KMUS 102145Z 25022G31KT 15/M00 A2958 RMK A01 T01541001  RH  035%=      5-min Rain = 0
KMUS 102150Z 25020KT 15/M00 A2958 RMK A01 T01511001  RH  036%=      5-min Rain = 0
KMUS 102155Z 26019G24KT 15/00 A2958 RMK A01 T01490000  RH  036%=      5-min Rain = 0
KMUS 102200Z 26019G25KT 15/M00 A2958 RMK A01 T01481002  RH  036%=      5-min Rain = 0
KMUS 102205Z 26018G23KT 15/M00 A2958 RMK A01 T01461001  RH  037%=      5-min Rain = 0
KMUS 102210Z 25015G20KT 14/00 A2957 RMK A01 T01440001  RH  038%=      5-min Rain = 0
KMUS 102215Z 25019G24KT 15/M00 A2957 RMK A01 T01451001  RH  037%=      5-min Rain = 0
KMUS 102220Z 25016G24KT 15/M00 A2957 RMK A01 T01461003  RH  036%=      5-min Rain = 0
KMUS 102225Z 24014G21KT 15/M00 A2958 RMK A01 T01481003  RH  036%=      5-min Rain = 0
KMUS 102230Z 24016KT 15/M01 A2957 RMK A01 T01511005  RH  035%=      5-min Rain = 0
KMUS 102235Z 24016G23KT 15/M01 A2957 RMK A01 T01521009  RH  034%=      5-min Rain = 0
KMUS 102240Z 24018G26KT 15/M01 A2958 RMK A01 T01511013  RH  033%=      5-min Rain = 0
KMUS 102245Z 24017G22KT 15/M02 A2958 RMK A01 T01491017  RH  032%=      5-min Rain = 0
KMUS 102250Z 23017G23KT 15/M02 A2958 RMK A01 T01461017  RH  033%=      5-min Rain = 0
KMUS 102255Z 23016G21KT 14/M02 A2957 RMK A01 T01431017  RH  033%=      5-min Rain = 0
KMUS 102300Z 22014G19KT 14/M02 A2957 RMK A01 T01411016  RH  034%=      5-min Rain = 0
KMUS 102305Z 22014G19KT 14/M01 A2957 RMK A01 T01401013  RH  035%=      5-min Rain = 0
KMUS 102310Z 22015G20KT 14/M01 A2957 RMK A01 T01421011  RH  035%=      5-min Rain = 0
KMUS 102315Z 22018G26KT 14/M01 A2958 RMK A01 T01421014  RH  034%=      5-min Rain = 0
KMUS 102320Z 22018G24KT 14/M01 A2958 RMK A01 T01411012  RH  035%=      5-min Rain = 0
KMUS 102325Z 22017G26KT 14/M01 A2958 RMK A01 T01381006  RH  038%=      5-min Rain = 0
KMUS 102330Z 22021G29KT 13/M00 A2959 RMK A01 T01331004  RH  039%=      5-min Rain = 0
KMUS 102335Z 22022G29KT 13/M00 A2959 RMK A01 T01291001  RH  041%=      5-min Rain = 0
KMUS 102340Z 22022G30KT 13/00 A2959 RMK A01 T01270002  RH  043%=      5-min Rain = 0
KMUS 102345Z 22021G30KT 12/00 A2959 RMK A01 T01240003  RH  044%=      5-min Rain = 0
KMUS 102350Z 22019G26KT 12/00 A2959 RMK A01 T01220002  RH  044%=      5-min Rain = 0
KMUS 102355Z 23019G25KT 12/00 A2959 RMK A01 T01220001  RH  044%=      5-min Rain = 0
KMUS 110000Z 23018G24KT 12/M00 A2959 RMK A01 T01211002  RH  043%=      5-min Rain = 0
KMUS 110005Z 24017G25KT 12/M01 A2959 RMK A01 T01201006  RH  042%=      5-min Rain = 0
KMUS 110010Z 24018G25KT 12/M01 A2959 RMK A01 T01191008  RH  042%=      5-min Rain = 0
KMUS 110015Z 24017G22KT 12/M01 A2959 RMK A01 T01181008  RH  042%=      5-min Rain = 0
KMUS 110020Z 24017KT 12/M01 A2959 RMK A01 T01171009  RH  042%=      5-min Rain = 0
KMUS 110025Z 23016G22KT 12/M01 A2959 RMK A01 T01151009  RH  042%=      5-min Rain = 0
KMUS 110030Z 24016G22KT 12/M01 A2959 RMK A01 T01151009  RH  043%=      5-min Rain = 0
KMUS 110035Z 24015G21KT 11/M01 A2958 RMK A01 T01141009  RH  043%=      5-min Rain = 0
KMUS 110040Z 24015KT 11/M01 A2958 RMK A01 T01131009  RH  043%=      5-min Rain = 0
KMUS 110045Z 24013G18KT 11/M01 A2958 RMK A01 T01111008  RH  044%=      5-min Rain = 0
KMUS 110050Z 24013KT 11/M01 A2958 RMK A01 T01101008  RH  045%=      5-min Rain = 0
KMUS 110055Z 25012KT 11/M01 A2958 RMK A01 T01081008  RH  045%=      5-min Rain = 0
KMUS 110100Z 25013KT 11/M01 A2957 RMK A01 T01091007  RH  045%=      5-min Rain = 0
KMUS 110105Z 25013G19KT 11/M01 A2957 RMK A01 T01091006  RH  045%=      5-min Rain = 0
KMUS 110110Z 25014KT 11/M01 A2956 RMK A01 T01091006  RH  045%=      5-min Rain = 0
KMUS 110115Z 25014KT 11/M01 A2956 RMK A01 T01091005  RH  046%=      5-min Rain = 0
KMUS 110120Z 25013G18KT 11/M01 A2956 RMK A01 T01081005  RH  046%=      5-min Rain = 0
KMUS 110125Z 24014KT 11/M01 A2956 RMK A01 T01071005  RH  046%=      5-min Rain = 0
KMUS 110130Z 24014G20KT 11/M01 A2956 RMK A01 T01061005  RH  047%=      5-min Rain = 0
KMUS 110135Z 24020G29KT 11/M01 A2956 RMK A01 T01091005  RH  046%=      5-min Rain = 0
KMUS 110140Z 24020G30KT 11/M01 A2956 RMK A01 T01091005  RH  046%=      5-min Rain = 0
KMUS 110145Z 24021G27KT 11/M00 A2956 RMK A01 T01081004  RH  046%=      5-min Rain = 0
KMUS 110150Z 25018G27KT 11/M00 A2956 RMK A01 T01061003  RH  048%=      5-min Rain = 0
KMUS 110155Z 25018G24KT 10/M00 A2955 RMK A01 T01021002  RH  049%=      5-min Rain = 0
KMUS 110200Z 25019G26KT 10/M00 A2955 RMK A01 T01001002  RH  050%=      5-min Rain = 0
KMUS 110205Z 25018G23KT 10/M00 A2955 RMK A01 T00981003  RH  050%=      5-min Rain = 0
KMUS 110210Z 24017G23KT 10/M00 A2955 RMK A01 T00961004  RH  050%=      5-min Rain = 0
KMUS 110215Z 24018KT 10/M01 A2955 RMK A01 T00951005  RH  050%=      5-min Rain = 0
KMUS 110220Z 24015G21KT 09/M01 A2955 RMK A01 T00931007  RH  050%=      5-min Rain = 0
KMUS 110225Z 24016G21KT 09/M01 A2955 RMK A01 T00921009  RH  050%=      5-min Rain = 0
KMUS 110230Z 24016G22KT 09/M01 A2955 RMK A01 T00911010  RH  050%=      5-min Rain = 0
KMUS 110235Z 24015G22KT 09/M01 A2955 RMK A01 T00901010  RH  050%=      5-min Rain = 0
KMUS 110240Z 24015G20KT 09/M01 A2955 RMK A01 T00881010  RH  051%=      5-min Rain = 0
KMUS 110245Z 23016G21KT 09/M01 A2954 RMK A01 T00871011  RH  051%=      5-min Rain = 0
KMUS 110250Z 23017G23KT 09/M01 A2954 RMK A01 T00861011  RH  051%=      5-min Rain = 0
KMUS 110255Z 23017G22KT 09/M01 A2954 RMK A01 T00851013  RH  051%=      5-min Rain = 0
KMUS 110300Z 24017G25KT 09/M01 A2954 RMK A01 T00851014  RH  050%=      5-min Rain = 0
KMUS 110305Z 24018G24KT 09/M02 A2954 RMK A01 T00861016  RH  049%=      5-min Rain = 0
KMUS 110310Z 24019KT 09/M02 A2953 RMK A01 T00871017  RH  048%=      5-min Rain = 0
KMUS 110315Z 24018G23KT 09/M02 A2953 RMK A01 T00871018  RH  048%=      5-min Rain = 0
KMUS 110320Z 24018G23KT 09/M02 A2953 RMK A01 T00871019  RH  048%=      5-min Rain = 0
KMUS 110325Z 23019G26KT 09/M02 A2953 RMK A01 T00881020  RH  047%=      5-min Rain = 0
KMUS 110330Z 24019G25KT 09/M02 A2953 RMK A01 T00881019  RH  047%=      5-min Rain = 0
KMUS 110335Z 24021G27KT 09/M02 A2953 RMK A01 T00901019  RH  047%=      5-min Rain = 0
KMUS 110340Z 24020G27KT 09/M02 A2953 RMK A01 T00901019  RH  047%=      5-min Rain = 0
KMUS 110345Z 24022G29KT 09/M02 A2953 RMK A01 T00901018  RH  047%=      5-min Rain = 0
KMUS 110350Z 24020G26KT 09/M02 A2953 RMK A01 T00901018  RH  047%=      5-min Rain = 0
KMUS 110355Z 24020G27KT 09/M02 A2953 RMK A01 T00891017  RH  048%=      5-min Rain = 0
KMUS 110400Z 24021G28KT 09/M02 A2952 RMK A01 T00891017  RH  048%=      5-min Rain = 0
KMUS 110405Z 24020G29KT 09/M02 A2952 RMK A01 T00891017  RH  048%=      5-min Rain = 0
KMUS 110410Z 24021G27KT 09/M02 A2952 RMK A01 T00891016  RH  048%=      5-min Rain = 0
KMUS 110415Z 24023G30KT 09/M02 A2952 RMK A01 T00901017  RH  047%=      5-min Rain = 0
KMUS 110420Z 24020G28KT 09/M02 A2952 RMK A01 T00901017  RH  047%=      5-min Rain = 0
KMUS 110425Z 24020G26KT 09/M02 A2952 RMK A01 T00891017  RH  048%=      5-min Rain = 0
KMUS 110430Z 24020G27KT 09/M02 A2952 RMK A01 T00881017  RH  048%=      5-min Rain = 0
KMUS 110435Z 25019G25KT 09/M02 A2952 RMK A01 T00881018  RH  048%=      5-min Rain = 0
KMUS 110440Z 25021G28KT 09/M02 A2952 RMK A01 T00881018  RH  048%=      5-min Rain = 0
KMUS 110445Z 25022G29KT 09/M02 A2952 RMK A01 T00891018  RH  047%=      5-min Rain = 0
KMUS 110450Z 25021G27KT 09/M02 A2952 RMK A01 T00891019  RH  047%=      5-min Rain = 0
KMUS 110455Z 25020G26KT 09/M02 A2953 RMK A01 T00891018  RH  047%=      5-min Rain = 0
KMUS 110500Z 25021G28KT 09/M02 A2953 RMK A01 T00891018  RH  047%=      5-min Rain = 0
KMUS 110505Z 25022G31KT 09/M02 A2953 RMK A01 T00891018  RH  048%=      5-min Rain = 0
KMUS 110510Z 25022G29KT 09/M02 A2953 RMK A01 T00891018  RH  048%=      5-min Rain = 0
KMUS 110515Z 25022G28KT 09/M02 A2953 RMK A01 T00891018  RH  048%=      5-min Rain = 0
KMUS 110520Z 25021G27KT 09/M02 A2953 RMK A01 T00881018  RH  048%=      5-min Rain = 0
KMUS 110525Z 25020G27KT 09/M02 A2953 RMK A01 T00881018  RH  048%=      5-min Rain = 0
KMUS 110530Z 26019G25KT 09/M02 A2953 RMK A01 T00881018  RH  048%=      5-min Rain = 0
KMUS 110535Z 26021G29KT 09/M02 A2953 RMK A01 T00891018  RH  047%=      5-min Rain = 0
KMUS 110540Z 26020G27KT 09/M02 A2954 RMK A01 T00891017  RH  048%=      5-min Rain = 0
KMUS 110545Z 26022G31KT 09/M02 A2954 RMK A01 T00891017  RH  048%=      5-min Rain = 0
KMUS 110550Z 26020G28KT 09/M02 A2954 RMK A01 T00881017  RH  048%=      5-min Rain = 0
KMUS 110555Z 26019G28KT 09/M02 A2954 RMK A01 T00861017  RH  049%=      5-min Rain = 0

Page generated in 0.0129 seconds.